sensor_id;sensor_type;location;lat;lon;timestamp;P1;durP1;ratioP1;P2;durP2;ratioP2
71503;SDS011;59323;50.874;7.028;2023-11-19T04:59:06;8.07;;;1.52;;
71503;SDS011;59323;50.874;7.028;2023-11-19T06:30:08;20.42;;;2.15;;
71503;SDS011;59323;50.874;7.028;2023-11-19T06:32:37;15.98;;;1.83;;
71503;SDS011;59323;50.874;7.028;2023-11-19T06:35:03;12.20;;;2.20;;
71503;SDS011;59323;50.874;7.028;2023-11-19T06:37:32;13.77;;;2.08;;
71503;SDS011;59323;50.874;7.028;2023-11-19T06:40:04;16.50;;;1.85;;
71503;SDS011;59323;50.874;7.028;2023-11-19T07:16:19;13.93;;;2.25;;
71503;SDS011;59323;50.874;7.028;2023-11-19T08:16:12;14.20;;;1.50;;
71503;SDS011;59323;50.874;7.028;2023-11-19T09:06:09;19.05;;;1.80;;
71503;SDS011;59323;50.874;7.028;2023-11-19T09:14:16;21.27;;;2.53;;
71503;SDS011;59323;50.874;7.028;2023-11-19T09:20:55;16.88;;;2.25;;
71503;SDS011;59323;50.874;7.028;2023-11-19T09:23:57;15.07;;;2.00;;
71503;SDS011;59323;50.874;7.028;2023-11-19T09:30:27;14.60;;;2.10;;
71503;SDS011;59323;50.874;7.028;2023-11-19T09:33:11;14.13;;;1.83;;
71503;SDS011;59323;50.874;7.028;2023-11-19T09:35:59;14.73;;;1.85;;
71503;SDS011;59323;50.874;7.028;2023-11-19T09:46:04;14.73;;;1.92;;
71503;SDS011;59323;50.874;7.028;2023-11-19T09:49:42;22.40;;;2.33;;
71503;SDS011;59323;50.874;7.028;2023-11-19T09:52:47;16.92;;;2.08;;
71503;SDS011;59323;50.874;7.028;2023-11-19T09:59:13;17.48;;;1.95;;
71503;SDS011;59323;50.874;7.028;2023-11-19T10:16:50;13.25;;;2.00;;
71503;SDS011;59323;50.874;7.028;2023-11-19T10:22:28;13.88;;;2.00;;
71503;SDS011;59323;50.874;7.028;2023-11-19T10:28:12;14.13;;;1.87;;
71503;SDS011;59323;50.874;7.028;2023-11-19T10:38:17;16.13;;;1.92;;
71503;SDS011;59323;50.874;7.028;2023-11-19T10:41:48;18.30;;;2.00;;
71503;SDS011;59323;50.874;7.028;2023-11-19T10:45:23;20.53;;;2.47;;
71503;SDS011;59323;50.874;7.028;2023-11-19T10:51:47;19.33;;;1.88;;
71503;SDS011;59323;50.874;7.028;2023-11-19T10:54:57;12.82;;;1.75;;
71503;SDS011;59323;50.874;7.028;2023-11-19T11:03:39;14.38;;;2.20;;
71503;SDS011;59323;50.874;7.028;2023-11-19T11:06:08;13.05;;;2.00;;
71503;SDS011;59323;50.874;7.028;2023-11-19T11:09:39;20.02;;;2.10;;
71503;SDS011;59323;50.874;7.028;2023-11-19T11:15:30;17.83;;;1.80;;
71503;SDS011;59323;50.874;7.028;2023-11-19T11:18:11;17.50;;;2.00;;
71503;SDS011;59323;50.874;7.028;2023-11-19T11:40:27;16.75;;;1.88;;
71503;SDS011;59323;50.874;7.028;2023-11-19T12:27:48;15.68;;;1.80;;
71503;SDS011;59323;50.874;7.028;2023-11-19T12:30:20;14.10;;;1.83;;
71503;SDS011;59323;50.874;7.028;2023-11-19T12:32:48;16.83;;;2.17;;
71503;SDS011;59323;50.874;7.028;2023-11-19T12:35:18;12.18;;;1.65;;
71503;SDS011;59323;50.874;7.028;2023-11-19T12:37:50;12.45;;;1.73;;
71503;SDS011;59323;50.874;7.028;2023-11-19T12:40:30;12.30;;;1.98;;
71503;SDS011;59323;50.874;7.028;2023-11-19T12:42:56;13.15;;;1.90;;
71503;SDS011;59323;50.874;7.028;2023-11-19T12:45:39;10.83;;;1.70;;
71503;SDS011;59323;50.874;7.028;2023-11-19T12:48:05;17.33;;;1.75;;
71503;SDS011;59323;50.874;7.028;2023-11-19T12:53:19;7.38;;;1.40;;
71503;SDS011;59323;50.874;7.028;2023-11-19T12:55:45;18.63;;;2.00;;
71503;SDS011;59323;50.874;7.028;2023-11-19T12:58:10;11.13;;;1.20;;
71503;SDS011;59323;50.874;7.028;2023-11-19T13:00:58;9.57;;;1.10;;
71503;SDS011;59323;50.874;7.028;2023-11-19T13:03:34;8.02;;;1.25;;
71503;SDS011;59323;50.874;7.028;2023-11-19T13:06:10;11.18;;;1.30;;
71503;SDS011;59323;50.874;7.028;2023-11-19T13:11:13;11.00;;;1.43;;
71503;SDS011;59323;50.874;7.028;2023-11-19T13:33:51;12.10;;;1.45;;
71503;SDS011;59323;50.874;7.028;2023-11-19T13:36:23;16.95;;;2.08;;
71503;SDS011;59323;50.874;7.028;2023-11-19T13:39:19;12.93;;;2.00;;
71503;SDS011;59323;50.874;7.028;2023-11-19T13:46:23;11.40;;;1.95;;
71503;SDS011;59323;50.874;7.028;2023-11-19T13:48:49;12.00;;;1.25;;
71503;SDS011;59323;50.874;7.028;2023-11-19T15:05:31;9.15;;;1.30;;
71503;SDS011;59323;50.874;7.028;2023-11-19T15:08:39;13.25;;;1.48;;
71503;SDS011;59323;50.874;7.028;2023-11-19T15:19:07;14.30;;;1.47;;
71503;SDS011;59323;50.874;7.028;2023-11-19T15:22:49;12.18;;;1.73;;
71503;SDS011;59323;50.874;7.028;2023-11-19T15:29:29;13.15;;;1.33;;
71503;SDS011;59323;50.874;7.028;2023-11-19T15:32:46;12.77;;;1.55;;
71503;SDS011;59323;50.874;7.028;2023-11-19T15:36:05;9.67;;;1.33;;
71503;SDS011;59323;50.874;7.028;2023-11-19T15:50:01;11.55;;;2.08;;
71503;SDS011;59323;50.874;7.028;2023-11-19T15:53:45;12.40;;;1.60;;
71503;SDS011;59323;50.874;7.028;2023-11-19T15:56:36;18.63;;;2.55;;
71503;SDS011;59323;50.874;7.028;2023-11-19T16:06:46;13.23;;;1.80;;
71503;SDS011;59323;50.874;7.028;2023-11-19T16:10:01;15.23;;;1.40;;
71503;SDS011;59323;50.874;7.028;2023-11-19T16:23:46;12.23;;;1.80;;
71503;SDS011;59323;50.874;7.028;2023-11-19T16:26:35;13.97;;;1.60;;
71503;SDS011;59323;50.874;7.028;2023-11-19T16:29:17;12.60;;;1.42;;
71503;SDS011;59323;50.874;7.028;2023-11-19T16:31:42;14.13;;;2.15;;
71503;SDS011;59323;50.874;7.028;2023-11-19T16:34:32;13.13;;;1.80;;
71503;SDS011;59323;50.874;7.028;2023-11-19T16:40:43;13.83;;;1.90;;
71503;SDS011;59323;50.874;7.028;2023-11-19T16:43:17;14.70;;;1.58;;
71503;SDS011;59323;50.874;7.028;2023-11-19T16:45:49;13.45;;;1.25;;
71503;SDS011;59323;50.874;7.028;2023-11-19T16:48:55;9.57;;;1.35;;
71503;SDS011;59323;50.874;7.028;2023-11-19T16:51:41;11.85;;;1.77;;
71503;SDS011;59323;50.874;7.028;2023-11-19T16:57:01;21.38;;;3.30;;
71503;SDS011;59323;50.874;7.028;2023-11-19T16:59:39;17.75;;;2.60;;
71503;SDS011;59323;50.874;7.028;2023-11-19T17:02:22;17.27;;;2.03;;
71503;SDS011;59323;50.874;7.028;2023-11-19T17:07:49;17.97;;;1.93;;
71503;SDS011;59323;50.874;7.028;2023-11-19T17:10:25;10.68;;;1.65;;
71503;SDS011;59323;50.874;7.028;2023-11-19T17:12:53;11.88;;;1.75;;
71503;SDS011;59323;50.874;7.028;2023-11-19T17:18:44;10.93;;;1.77;;
71503;SDS011;59323;50.874;7.028;2023-11-19T17:21:10;8.73;;;1.30;;
71503;SDS011;59323;50.874;7.028;2023-11-19T17:23:36;13.20;;;2.03;;
71503;SDS011;59323;50.874;7.028;2023-11-19T17:26:10;13.25;;;1.70;;
71503;SDS011;59323;50.874;7.028;2023-11-19T17:29:01;10.45;;;1.95;;
71503;SDS011;59323;50.874;7.028;2023-11-19T17:31:53;11.00;;;1.40;;
71503;SDS011;59323;50.874;7.028;2023-11-19T17:34:28;16.08;;;1.80;;
71503;SDS011;59323;50.874;7.028;2023-11-19T17:37:15;12.33;;;1.63;;
71503;SDS011;59323;50.874;7.028;2023-11-19T17:39:43;19.92;;;2.55;;
71503;SDS011;59323;50.874;7.028;2023-11-19T17:42:14;15.93;;;1.83;;
71503;SDS011;59323;50.874;7.028;2023-11-19T17:44:53;8.95;;;1.48;;
71503;SDS011;59323;50.874;7.028;2023-11-19T17:47:28;13.85;;;1.73;;
71503;SDS011;59323;50.874;7.028;2023-11-19T17:49:55;13.03;;;2.30;;
71503;SDS011;59323;50.874;7.028;2023-11-19T17:52:39;11.55;;;1.48;;
71503;SDS011;59323;50.874;7.028;2023-11-19T17:55:14;13.20;;;1.73;;
71503;SDS011;59323;50.874;7.028;2023-11-19T17:57:51;15.07;;;2.08;;
71503;SDS011;59323;50.874;7.028;2023-11-19T18:00:20;12.73;;;1.42;;
71503;SDS011;59323;50.874;7.028;2023-11-19T18:02:49;11.30;;;1.60;;
71503;SDS011;59323;50.874;7.028;2023-11-19T18:05:18;14.85;;;1.90;;
71503;SDS011;59323;50.874;7.028;2023-11-19T18:07:56;17.02;;;1.80;;
71503;SDS011;59323;50.874;7.028;2023-11-19T18:10:43;9.43;;;1.10;;
71503;SDS011;59323;50.874;7.028;2023-11-19T18:13:31;12.52;;;1.73;;
71503;SDS011;59323;50.874;7.028;2023-11-19T18:16:51;9.83;;;1.27;;
71503;SDS011;59323;50.874;7.028;2023-11-19T18:26:54;12.73;;;2.15;;
71503;SDS011;59323;50.874;7.028;2023-11-19T18:30:29;18.48;;;1.90;;
71503;SDS011;59323;50.874;7.028;2023-11-19T18:33:10;8.43;;;1.20;;
71503;SDS011;59323;50.874;7.028;2023-11-19T18:51:24;11.68;;;0.93;;
71503;SDS011;59323;50.874;7.028;2023-11-19T18:54:36;10.68;;;1.35;;
71503;SDS011;59323;50.874;7.028;2023-11-19T18:57:06;12.13;;;1.08;;
71503;SDS011;59323;50.874;7.028;2023-11-19T18:59:41;10.40;;;1.33;;
71503;SDS011;59323;50.874;7.028;2023-11-19T19:02:06;10.67;;;1.30;;
71503;SDS011;59323;50.874;7.028;2023-11-19T19:04:35;9.20;;;1.25;;
71503;SDS011;59323;50.874;7.028;2023-11-19T19:07:16;7.57;;;1.35;;
71503;SDS011;59323;50.874;7.028;2023-11-19T19:10:03;9.77;;;1.35;;
71503;SDS011;59323;50.874;7.028;2023-11-19T19:16:11;11.10;;;1.27;;
71503;SDS011;59323;50.874;7.028;2023-11-19T19:18:38;10.85;;;1.20;;
71503;SDS011;59323;50.874;7.028;2023-11-19T19:22:27;9.27;;;1.23;;
71503;SDS011;59323;50.874;7.028;2023-11-19T19:24:55;7.70;;;1.10;;
71503;SDS011;59323;50.874;7.028;2023-11-19T19:27:55;9.47;;;1.43;;
71503;SDS011;59323;50.874;7.028;2023-11-19T19:30:50;12.73;;;1.38;;
71503;SDS011;59323;50.874;7.028;2023-11-19T19:33:17;9.35;;;1.23;;
71503;SDS011;59323;50.874;7.028;2023-11-19T19:35:52;7.63;;;1.17;;
71503;SDS011;59323;50.874;7.028;2023-11-19T19:38:25;8.52;;;0.60;;
71503;SDS011;59323;50.874;7.028;2023-11-19T19:40:50;9.30;;;1.20;;
71503;SDS011;59323;50.874;7.028;2023-11-19T19:43:22;6.70;;;1.00;;
71503;SDS011;59323;50.874;7.028;2023-11-19T19:49:16;7.03;;;0.90;;
71503;SDS011;59323;50.874;7.028;2023-11-19T19:51:50;8.45;;;1.33;;
71503;SDS011;59323;50.874;7.028;2023-11-19T20:00:11;6.68;;;0.98;;
71503;SDS011;59323;50.874;7.028;2023-11-19T20:06:39;11.18;;;1.33;;
71503;SDS011;59323;50.874;7.028;2023-11-19T20:09:11;12.02;;;1.77;;
71503;SDS011;59323;50.874;7.028;2023-11-19T20:26:39;7.95;;;1.05;;
71503;SDS011;59323;50.874;7.028;2023-11-19T20:29:28;10.57;;;1.48;;
71503;SDS011;59323;50.874;7.028;2023-11-19T20:41:51;6.55;;;0.82;;
71503;SDS011;59323;50.874;7.028;2023-11-19T20:47:51;8.48;;;0.95;;
71503;SDS011;59323;50.874;7.028;2023-11-19T20:50:18;7.07;;;0.87;;
71503;SDS011;59323;50.874;7.028;2023-11-19T20:52:50;7.28;;;1.50;;
71503;SDS011;59323;50.874;7.028;2023-11-19T20:55:20;8.63;;;0.82;;
71503;SDS011;59323;50.874;7.028;2023-11-19T20:57:45;6.80;;;0.90;;
71503;SDS011;59323;50.874;7.028;2023-11-19T21:00:30;7.10;;;0.93;;
71503;SDS011;59323;50.874;7.028;2023-11-19T21:03:22;6.63;;;0.77;;
71503;SDS011;59323;50.874;7.028;2023-11-19T21:06:17;8.02;;;1.05;;
71503;SDS011;59323;50.874;7.028;2023-11-19T21:12:05;8.65;;;1.10;;
71503;SDS011;59323;50.874;7.028;2023-11-19T21:14:36;5.05;;;0.60;;
71503;SDS011;59323;50.874;7.028;2023-11-19T21:17:30;9.13;;;1.10;;
71503;SDS011;59323;50.874;7.028;2023-11-19T21:20:00;6.22;;;0.60;;
71503;SDS011;59323;50.874;7.028;2023-11-19T21:22:31;6.20;;;0.93;;
71503;SDS011;59323;50.874;7.028;2023-11-19T21:25:14;7.93;;;1.10;;
71503;SDS011;59323;50.874;7.028;2023-11-19T21:27:53;5.90;;;0.85;;
71503;SDS011;59323;50.874;7.028;2023-11-19T22:08:34;5.68;;;0.60;;
71503;SDS011;59323;50.874;7.028;2023-11-19T22:21:42;4.07;;;0.63;;
71503;SDS011;59323;50.874;7.028;2023-11-19T22:24:24;3.43;;;0.60;;
71503;SDS011;59323;50.874;7.028;2023-11-19T22:26:55;4.13;;;0.52;;
71503;SDS011;59323;50.874;7.028;2023-11-19T22:29:36;2.78;;;0.50;;
71503;SDS011;59323;50.874;7.028;2023-11-19T22:35:52;6.40;;;0.60;;
71503;SDS011;59323;50.874;7.028;2023-11-19T22:39:15;4.15;;;0.63;;
71503;SDS011;59323;50.874;7.028;2023-11-19T22:41:58;3.13;;;0.52;;
71503;SDS011;59323;50.874;7.028;2023-11-19T22:47:12;2.67;;;0.50;;
71503;SDS011;59323;50.874;7.028;2023-11-19T22:49:40;3.97;;;0.50;;
71503;SDS011;59323;50.874;7.028;2023-11-19T22:52:23;4.88;;;0.60;;
71503;SDS011;59323;50.874;7.028;2023-11-19T22:54:52;2.72;;;0.38;;
71503;SDS011;59323;50.874;7.028;2023-11-19T23:01:09;3.90;;;0.52;;
71503;SDS011;59323;50.874;7.028;2023-11-19T23:14:13;3.25;;;0.43;;
71503;SDS011;59323;50.874;7.028;2023-11-19T23:16:50;3.10;;;0.55;;
71503;SDS011;59323;50.874;7.028;2023-11-19T23:19:21;3.87;;;0.40;;
71503;SDS011;59323;50.874;7.028;2023-11-19T23:21:50;4.03;;;0.60;;
71503;SDS011;59323;50.874;7.028;2023-11-19T23:24:38;3.72;;;0.40;;
71503;SDS011;59323;50.874;7.028;2023-11-19T23:27:07;4.17;;;0.50;;
71503;SDS011;59323;50.874;7.028;2023-11-19T23:29:49;5.22;;;0.40;;
71503;SDS011;59323;50.874;7.028;2023-11-19T23:32:15;5.43;;;0.80;;
71503;SDS011;59323;50.874;7.028;2023-11-19T23:35:22;4.82;;;0.50;;
71503;SDS011;59323;50.874;7.028;2023-11-19T23:37:53;3.75;;;0.60;;
71503;SDS011;59323;50.874;7.028;2023-11-19T23:43:39;4.13;;;0.52;;
71503;SDS011;59323;50.874;7.028;2023-11-19T23:46:35;4.47;;;0.57;;
71503;SDS011;59323;50.874;7.028;2023-11-19T23:49:08;2.85;;;0.57;;
71503;SDS011;59323;50.874;7.028;2023-11-19T23:51:47;7.30;;;0.63;;
71503;SDS011;59323;50.874;7.028;2023-11-19T23:54:12;7.05;;;0.50;;
71503;SDS011;59323;50.874;7.028;2023-11-19T23:56:44;3.00;;;0.47;;
